Capitol Logistics 914

Operating for DHL



ENAT
Alta Airport
Alta, NO
EGNX
East Midlands Airport
Derby, GB

Activity Log

Date Flight Route Aircraft Duration
01/18/2022 CPX1005 NATE1W NATED ADAPU Z201 STM Z200 UVEPI Z325 KVB Z105 RIGVU ROBEM UP16 BEGAM ROKU1K B738 3h 46m

Route Details

Aircraft Information
Group: European Fleet
Types: A30F,A31F,B738
Route Data
Demand: L
Distance: 1233nm
Duration: 3h 45m
Recm'd Route: LUVE1A LUVED GAPRO BNN Z200 LETPA T401 ROPNO P600 ZOL T400 ALOTI UM89 SAB HAVEN Y96 AGPED N110 UNTAL UP18 GASKO BEGAM ROKU1K
Origin Wx: ENAT 270520Z 03010KT CAVOK 08/01 Q1005 RMK WIND 700FT 02015KT
Dest. Wx: EGNX 270520Z 26011KT CAVOK 09/04 Q1023
Notes:

Financial History
Total Freight: 11,088lbs
Average Load: 11,088lbs/flt
Fuel Used: 16,263lbs
Avg. Fuel Used: 16,263lbs/flt
Fuel Expense: $13,763
Avg. Fuel Expense: $13,763
Avg. Fuel Cost: $0.85/lbs
Total Gross Income: $22,631
Pilot Pay: $259
Total Expenses: $4,063
Total Revenue: $3,908
Average Revenue: $22,630.61